Copenhagen, Denmark
Current Conditions -  °F | °C
As of 8:12 AM on Monday 22 Dec 2014 (Local Time) from EKCH Reporting Station
Drizzle Drizzle  
Wind Chill: 43°   Ceiling: 900
Heat Index: 48°   Visibility: 2.5mi
Dew Point: 48°   Wind: 14mph
Humidity: 100%   Direction: 260°W
Pressure: 29.47"   Gusts: NA
Location:  55.68°N, 12.57°E
Report Text: EKCH 220712Z 26012KT 4000 -DZ BKN009 09/09 Q0998 BECMG8000
Loading
Personal Weather Stations






























Interactive Weather Map New forecast layout! Learn more

10-Day Weather Forecast

Advertisements
Track Severe Weather on mobile